Time;durP1;ratioP1;P1;durP2;ratioP2;P2;SDS_P1;SDS_P2;PMS_P1;PMS_P2;Temp;Humidity;BMP_temperature;BMP_pressure;BME280_temperature;BME280_humidity;BME280_pressure;Samples;Min_cycle;Max_cycle;Signal;HPM_P1;HPM_P2
2023/09/22 00:01:46;;;;;;;104.65;53.75;;;17.00;96.90;;;;;;4972498;28;90546;-83
2023/09/22 00:04:12;;;;;;;102.63;53.80;;;17.00;97.30;;;;;;4969379;28;94154;-83
2023/09/22 00:06:37;;;;;;;102.05;54.00;;;17.00;97.10;;;;;;4971282;28;89694;-84
2023/09/22 00:09:09;;;;;;;101.25;54.00;;;17.00;96.50;;;;;;4972937;28;90474;-84
2023/09/22 00:11:36;;;;;;;101.80;53.75;;;17.00;97.20;;;;;;4965481;28;93907;-83
2023/09/22 00:14:01;;;;;;;103.20;54.05;;;17.00;96.90;;;;;;4955960;28;92726;-83
2023/09/22 00:16:27;;;;;;;102.75;54.25;;;17.00;96.80;;;;;;4975367;28;90541;-85
2023/09/22 00:18:53;;;;;;;102.47;53.80;;;17.00;97.30;;;;;;4973081;28;89362;-83
2023/09/22 00:21:19;;;;;;;101.47;53.67;;;17.00;97.10;;;;;;4954264;28;95051;-83
2023/09/22 00:23:44;;;;;;;102.18;53.83;;;17.00;97.20;;;;;;4958269;28;92582;-84
2023/09/22 00:26:10;;;;;;;102.88;53.90;;;17.00;96.80;;;;;;4962609;28;90196;-86
2023/09/22 00:28:36;;;;;;;104.68;54.25;;;17.00;97.20;;;;;;4969108;28;89806;-83
2023/09/22 00:31:01;;;;;;;101.38;53.47;;;17.00;97.00;;;;;;4977207;28;91010;-84
2023/09/22 00:33:27;;;;;;;103.47;53.95;;;17.00;97.00;;;;;;4968382;28;92747;-83
2023/09/22 00:35:53;;;;;;;101.88;53.63;;;17.00;97.00;;;;;;4968699;28;89598;-83
2023/09/22 00:38:18;;;;;;;101.07;53.58;;;17.00;97.10;;;;;;4964727;28;89288;-84
2023/09/22 00:40:44;;;;;;;102.25;53.83;;;17.10;97.10;;;;;;4976563;28;90577;-83
2023/09/22 00:43:11;;;;;;;103.22;53.83;;;17.10;97.00;;;;;;4980111;28;90206;-83
2023/09/22 00:45:42;;;;;;;101.85;53.45;;;17.10;96.60;;;;;;4980600;28;91616;-84
2023/09/22 00:48:09;;;;;;;101.63;53.88;;;17.10;96.80;;;;;;4987761;28;91537;-83
2023/09/22 00:50:39;;;;;;;100.78;53.35;;;17.10;96.50;;;;;;4977994;28;91251;-83
2023/09/22 00:53:05;;;;;;;102.25;53.92;;;17.10;97.40;;;;;;4963203;28;94409;-85
2023/09/22 00:55:31;;;;;;;102.35;53.45;;;17.10;97.10;;;;;;4970687;28;89720;-83
2023/09/22 00:57:58;;;;;;;101.22;53.60;;;17.10;96.80;;;;;;4963502;28;91540;-84
2023/09/22 01:00:26;;;;;;;102.28;53.83;;;17.00;97.10;;;;;;4982938;28;92366;-83
2023/09/22 01:02:52;;;;;;;102.35;53.95;;;17.00;97.20;;;;;;4977944;28;92422;-83
2023/09/22 01:05:17;;;;;;;102.30;53.72;;;17.00;97.20;;;;;;4983638;28;90181;-84
2023/09/22 01:07:44;;;;;;;102.50;53.65;;;17.00;96.90;;;;;;4961924;28;89489;-83
2023/09/22 01:10:10;;;;;;;103.38;53.55;;;17.10;97.40;;;;;;4977821;28;91482;-83
2023/09/22 01:12:36;;;;;;;102.32;53.65;;;17.10;97.10;;;;;;4973259;28;91047;-83
2023/09/22 01:15:02;;;;;;;100.85;53.55;;;17.10;96.90;;;;;;4959112;28;94620;-83
2023/09/22 01:17:28;;;;;;;102.95;53.55;;;17.10;97.30;;;;;;4983171;28;89275;-83
2023/09/22 01:19:53;;;;;;;101.38;53.55;;;17.00;97.40;;;;;;4963136;28;94251;-83
2023/09/22 01:22:20;;;;;;;101.40;53.30;;;17.00;97.00;;;;;;4980187;28;95331;-83
2023/09/22 01:24:45;;;;;;;101.53;53.63;;;17.00;96.90;;;;;;4957102;28;90352;-83
2023/09/22 01:27:11;;;;;;;101.55;53.55;;;17.00;97.00;;;;;;4971763;28;89746;-83
2023/09/22 01:29:37;;;;;;;102.43;53.38;;;17.00;97.10;;;;;;4971749;28;92360;-83
2023/09/22 01:32:03;;;;;;;100.35;53.13;;;17.10;96.90;;;;;;4968373;28;92634;-83
2023/09/22 01:34:29;;;;;;;100.13;53.25;;;17.00;97.10;;;;;;4974659;28;91516;-83
2023/09/22 01:36:54;;;;;;;100.93;52.83;;;17.00;96.90;;;;;;4973162;28;94116;-83
2023/09/22 01:39:22;;;;;;;101.13;53.50;;;17.00;96.70;;;;;;4981374;28;92790;-83
2023/09/22 01:41:48;;;;;;;102.47;53.55;;;17.00;97.40;;;;;;4976277;28;93739;-83
2023/09/22 01:44:13;;;;;;;101.25;53.42;;;17.00;97.00;;;;;;4956628;28;89898;-84
2023/09/22 01:46:39;;;;;;;103.65;53.45;;;17.00;97.00;;;;;;4976471;28;90678;-83
2023/09/22 01:49:04;;;;;;;103.55;53.47;;;17.00;97.20;;;;;;4948477;28;93610;-83
2023/09/22 01:51:30;;;;;;;102.85;53.63;;;17.00;97.20;;;;;;4937742;28;92744;-85
2023/09/22 01:53:56;;;;;;;101.25;52.97;;;17.00;97.40;;;;;;4947912;28;89736;-83
2023/09/22 01:56:22;;;;;;;104.45;53.35;;;17.00;97.50;;;;;;4954857;28;90197;-84
2023/09/22 01:58:48;;;;;;;102.00;53.28;;;17.00;96.80;;;;;;4956637;28;91005;-83
2023/09/22 02:01:14;;;;;;;101.15;53.35;;;17.00;97.40;;;;;;4957283;28;90833;-83
2023/09/22 02:03:40;;;;;;;101.82;53.47;;;16.90;97.00;;;;;;4954372;28;89935;-83
2023/09/22 02:06:05;;;;;;;100.70;53.42;;;17.00;97.70;;;;;;4931756;28;89613;-82
2023/09/22 02:08:31;;;;;;;101.38;53.28;;;16.90;97.00;;;;;;4938602;28;93767;-84
2023/09/22 02:10:57;;;;;;;101.75;53.25;;;16.90;97.40;;;;;;4952281;28;89773;-83
2023/09/22 02:13:22;;;;;;;101.15;53.72;;;16.90;97.40;;;;;;4938737;28;89514;-83
2023/09/22 02:15:48;;;;;;;102.80;53.45;;;16.90;97.40;;;;;;4940908;28;88954;-82
2023/09/22 02:18:14;;;;;;;100.20;53.28;;;16.90;97.30;;;;;;4954821;28;89648;-83
2023/09/22 02:20:41;;;;;;;101.55;53.30;;;16.90;97.20;;;;;;4951019;28;92814;-83
2023/09/22 02:23:07;;;;;;;101.15;53.20;;;16.90;96.70;;;;;;4936858;28;91551;-83
2023/09/22 02:25:33;;;;;;;102.45;53.28;;;16.90;97.10;;;;;;4956689;28;89608;-83
2023/09/22 02:27:59;;;;;;;102.82;53.35;;;16.90;97.50;;;;;;4950779;28;89646;-83
2023/09/22 02:30:26;;;;;;;100.75;53.30;;;16.90;97.20;;;;;;4933418;28;92673;-84
2023/09/22 02:32:54;;;;;;;100.45;53.10;;;16.90;97.20;;;;;;4937611;28;92279;-83
2023/09/22 02:35:23;;;;;;;103.00;53.13;;;16.90;97.20;;;;;;4933495;28;90089;-85
2023/09/22 02:37:48;;;;;;;99.90;53.30;;;16.80;97.40;;;;;;4955202;28;91424;-83
2023/09/22 02:40:14;;;;;;;99.97;52.97;;;16.80;97.00;;;;;;4953269;28;91939;-83
2023/09/22 02:42:41;;;;;;;101.40;53.17;;;16.80;97.50;;;;;;4952398;28;94623;-84
2023/09/22 02:45:09;;;;;;;100.78;53.33;;;16.80;97.40;;;;;;4954340;28;89996;-83
2023/09/22 02:47:35;;;;;;;101.78;53.35;;;16.70;97.30;;;;;;4936142;28;95420;-84
2023/09/22 02:50:01;;;;;;;100.93;53.42;;;16.70;97.30;;;;;;4942329;28;92952;-85
2023/09/22 02:52:27;;;;;;;100.95;53.22;;;16.70;97.80;;;;;;4939434;28;91497;-83
2023/09/22 02:54:57;;;;;;;101.45;53.15;;;16.70;97.30;;;;;;4938579;28;90561;-83
2023/09/22 02:57:23;;;;;;;99.33;52.97;;;16.70;97.50;;;;;;4954662;28;89935;-84
2023/09/22 02:59:54;;;;;;;101.13;53.22;;;16.70;97.40;;;;;;4948274;28;91850;-82
2023/09/22 03:02:20;;;;;;;100.63;53.05;;;16.70;97.60;;;;;;4950808;28;90464;-84
2023/09/22 03:04:47;;;;;;;100.63;53.28;;;16.70;97.30;;;;;;4950068;28;89159;-83
2023/09/22 03:07:12;;;;;;;102.22;52.92;;;16.60;97.40;;;;;;4936723;28;92605;-83
2023/09/22 03:09:38;;;;;;;100.40;52.97;;;16.60;97.20;;;;;;4954599;28;90384;-83
2023/09/22 03:12:04;;;;;;;101.68;53.22;;;16.50;97.10;;;;;;4938416;28;90723;-83
2023/09/22 03:14:30;;;;;;;101.68;53.47;;;16.50;97.90;;;;;;4934367;28;90528;-83
2023/09/22 03:16:57;;;;;;;99.97;52.92;;;16.50;97.70;;;;;;4959156;28;92478;-85
2023/09/22 03:19:23;;;;;;;99.47;52.90;;;16.50;97.40;;;;;;4940876;28;92228;-84
2023/09/22 03:21:48;;;;;;;99.47;52.85;;;16.50;97.60;;;;;;4954031;28;89486;-83
2023/09/22 03:24:14;;;;;;;101.10;53.10;;;16.50;97.90;;;;;;4941400;28;90718;-84
2023/09/22 03:26:40;;;;;;;99.90;52.67;;;16.50;97.70;;;;;;4942242;28;94147;-83
2023/09/22 03:29:05;;;;;;;99.30;52.88;;;16.50;97.40;;;;;;4959591;28;90467;-83
2023/09/22 03:31:36;;;;;;;99.65;52.85;;;16.40;97.40;;;;;;4939475;28;89652;-83
2023/09/22 03:34:02;;;;;;;101.10;53.17;;;16.50;98.00;;;;;;4941702;28;89938;-83
2023/09/22 03:36:30;;;;;;;99.72;52.65;;;16.50;97.60;;;;;;4940194;28;93403;-83
2023/09/22 03:38:57;;;;;;;101.60;52.92;;;16.40;97.80;;;;;;4958081;28;90631;-84
2023/09/22 03:41:27;;;;;;;99.95;53.00;;;16.40;98.00;;;;;;4954112;28;90620;-84
2023/09/22 03:43:52;;;;;;;99.18;52.63;;;16.40;98.00;;;;;;4941152;28;90405;-83
2023/09/22 03:46:18;;;;;;;100.05;52.90;;;16.40;97.70;;;;;;4952404;28;90770;-84
2023/09/22 03:48:44;;;;;;;100.93;52.85;;;16.40;97.70;;;;;;4942330;28;92486;-85
2023/09/22 03:51:10;;;;;;;100.25;52.85;;;16.40;97.60;;;;;;4955168;28;89321;-83
2023/09/22 03:53:35;;;;;;;101.15;53.28;;;16.40;98.50;;;;;;4932411;28;89448;-84
2023/09/22 03:56:02;;;;;;;100.20;52.83;;;16.40;97.90;;;;;;4953141;28;89927;-83
2023/09/22 03:58:27;;;;;;;99.78;52.83;;;16.40;97.90;;;;;;4933921;28;94431;-83
2023/09/22 04:01:06;;;;;;;99.57;52.78;;;16.30;97.80;;;;;;4938856;28;90469;-83
2023/09/22 04:03:32;;;;;;;99.95;52.75;;;16.30;98.20;;;;;;4958892;28;89447;-83
2023/09/22 04:05:58;;;;;;;98.82;52.40;;;16.30;98.20;;;;;;4960274;28;90550;-83
2023/09/22 04:08:24;;;;;;;100.60;53.15;;;16.30;98.00;;;;;;4962311;28;90097;-83
2023/09/22 04:10:50;;;;;;;99.63;52.83;;;16.30;98.30;;;;;;4948920;28;89962;-85
2023/09/22 04:13:15;;;;;;;99.10;52.50;;;16.30;97.50;;;;;;4953912;28;90452;-84
2023/09/22 04:15:41;;;;;;;98.70;52.55;;;16.30;98.50;;;;;;4940193;28;93351;-83
2023/09/22 04:18:07;;;;;;;99.97;52.85;;;16.20;98.20;;;;;;4934713;28;92916;-83
2023/09/22 04:20:37;;;;;;;100.47;52.83;;;16.30;98.30;;;;;;4937946;28;91084;-85
2023/09/22 04:23:04;;;;;;;100.18;52.67;;;16.20;98.00;;;;;;4938627;28;90885;-83
2023/09/22 04:25:34;;;;;;;100.30;52.70;;;16.20;98.40;;;;;;4951171;28;91175;-83
2023/09/22 04:28:17;;;;;;;99.38;52.85;;;16.20;98.30;;;;;;4951663;28;90749;-83
2023/09/22 04:30:43;;;;;;;98.78;52.38;;;16.20;98.30;;;;;;4933871;28;89455;-83
2023/09/22 04:33:10;;;;;;;99.68;52.45;;;16.20;98.10;;;;;;4950020;28;90474;-83
2023/09/22 04:35:37;;;;;;;99.90;52.72;;;16.10;97.90;;;;;;4933764;28;92792;-85
2023/09/22 04:38:04;;;;;;;99.88;52.88;;;16.10;98.50;;;;;;4957538;28;91637;-82
2023/09/22 04:40:36;;;;;;;99.80;52.55;;;16.10;98.20;;;;;;4954962;28;89883;-83
2023/09/22 04:43:03;;;;;;;99.40;52.58;;;16.10;98.40;;;;;;4953005;28;88989;-85
2023/09/22 04:45:29;;;;;;;99.25;52.30;;;16.10;98.20;;;;;;4933348;28;92813;-83
2023/09/22 04:47:55;;;;;;;99.35;52.47;;;16.10;98.20;;;;;;4934059;28;93387;-83
2023/09/22 04:50:21;;;;;;;100.32;52.65;;;16.10;98.60;;;;;;4976642;28;90092;-83
2023/09/22 04:52:49;;;;;;;99.35;52.28;;;16.00;98.20;;;;;;4973759;28;89840;-85
2023/09/22 04:55:19;;;;;;;99.13;52.33;;;16.00;98.40;;;;;;4971362;28;92133;-83
2023/09/22 04:57:45;;;;;;;99.15;52.33;;;16.00;97.90;;;;;;4982103;28;89585;-83
2023/09/22 05:00:21;;;;;;;99.90;52.45;;;16.00;98.40;;;;;;4966214;28;89527;-84
2023/09/22 05:02:47;;;;;;;98.53;52.20;;;16.00;98.80;;;;;;4976620;28;90495;-85
2023/09/22 05:05:16;;;;;;;99.38;52.38;;;16.10;98.60;;;;;;4963341;28;93448;-83
2023/09/22 05:07:42;;;;;;;98.65;52.17;;;16.10;98.50;;;;;;4978050;28;93437;-83
2023/09/22 05:10:08;;;;;;;100.85;52.75;;;16.10;98.60;;;;;;4973160;28;89418;-83
2023/09/22 05:12:35;;;;;;;98.90;52.25;;;16.10;98.30;;;;;;4963340;28;90822;-85
2023/09/22 05:15:02;;;;;;;99.78;52.55;;;16.00;98.50;;;;;;4972619;28;94495;-83
2023/09/22 05:17:28;;;;;;;100.40;52.65;;;16.00;98.60;;;;;;4976961;28;90576;-83
2023/09/22 05:19:53;;;;;;;99.47;52.63;;;16.00;98.50;;;;;;4960206;28;89883;-82
2023/09/22 05:22:21;;;;;;;99.78;52.47;;;16.00;98.80;;;;;;4961911;28;90764;-84
2023/09/22 05:24:47;;;;;;;100.97;52.33;;;16.00;98.60;;;;;;4965212;28;92964;-84
2023/09/22 05:27:14;;;;;;;101.55;52.38;;;16.00;98.80;;;;;;4977588;28;92780;-84
2023/09/22 05:29:41;;;;;;;100.10;52.38;;;16.00;99.20;;;;;;4972633;28;90133;-81
2023/09/22 05:32:06;;;;;;;101.32;52.63;;;15.90;98.50;;;;;;4974277;28;89449;-84
2023/09/22 05:34:33;;;;;;;100.85;52.80;;;16.00;98.70;;;;;;4971576;28;90548;-84
2023/09/22 05:37:00;;;;;;;100.32;52.67;;;16.00;99.10;;;;;;4975600;28;92669;-84
2023/09/22 05:39:26;;;;;;;101.50;52.60;;;16.00;98.70;;;;;;4958759;28;90788;-83
2023/09/22 05:41:52;;;;;;;99.72;52.28;;;15.90;98.80;;;;;;4965963;28;92075;-84
2023/09/22 05:44:18;;;;;;;105.20;53.08;;;16.00;98.50;;;;;;4970332;28;94043;-83
2023/09/22 05:46:51;;;;;;;103.72;52.90;;;15.90;98.70;;;;;;4958527;28;93121;-83
2023/09/22 05:49:16;;;;;;;100.20;52.40;;;15.90;99.30;;;;;;4948664;28;90165;-82
2023/09/22 05:51:42;;;;;;;102.57;52.78;;;16.00;99.30;;;;;;4937311;28;89139;-82
2023/09/22 05:54:10;;;;;;;104.18;53.25;;;15.90;99.20;;;;;;4958985;28;92109;-81
2023/09/22 05:56:36;;;;;;;103.82;52.63;;;15.90;99.20;;;;;;4963705;28;92971;-85
2023/09/22 05:59:03;;;;;;;100.63;52.45;;;15.90;99.00;;;;;;4957973;28;89596;-82
2023/09/22 06:01:30;;;;;;;100.63;52.75;;;15.90;98.90;;;;;;4933110;28;94286;-82
2023/09/22 06:03:56;;;;;;;100.38;52.55;;;15.90;98.60;;;;;;4944170;28;94011;-82
2023/09/22 06:06:21;;;;;;;100.90;52.88;;;15.90;98.70;;;;;;4945895;28;91881;-83
2023/09/22 06:08:47;;;;;;;103.32;52.88;;;15.90;98.90;;;;;;4936155;28;90329;-82
2023/09/22 06:11:13;;;;;;;99.68;52.38;;;15.90;98.90;;;;;;4948717;28;91123;-82
2023/09/22 06:13:40;;;;;;;100.78;52.63;;;15.90;99.00;;;;;;4957748;28;90373;-82
2023/09/22 06:16:06;;;;;;;101.68;53.17;;;15.90;98.40;;;;;;4953804;28;89871;-82
2023/09/22 06:18:32;;;;;;;101.07;52.58;;;15.90;98.70;;;;;;4951066;28;89984;-83
2023/09/22 06:20:59;;;;;;;100.85;52.47;;;15.90;99.00;;;;;;4935591;28;90066;-83
2023/09/22 06:23:27;;;;;;;99.90;52.35;;;15.90;98.80;;;;;;4956544;28;89779;-84
2023/09/22 06:25:54;;;;;;;102.65;53.08;;;15.90;99.20;;;;;;4943064;28;92263;-81
2023/09/22 06:28:20;;;;;;;101.50;52.90;;;16.00;99.20;;;;;;4938907;28;90752;-81
2023/09/22 06:30:46;;;;;;;103.53;52.97;;;16.00;99.30;;;;;;4936801;28;89418;-81
2023/09/22 06:33:15;;;;;;;101.25;52.78;;;16.10;99.10;;;;;;4952174;28;89774;-81
2023/09/22 06:35:40;;;;;;;104.60;53.30;;;16.00;97.80;;;;;;4954929;28;94133;-82
2023/09/22 06:38:06;;;;;;;103.63;53.70;;;16.10;98.20;;;;;;4944447;28;89673;-80
2023/09/22 06:40:35;;;;;;;106.97;54.03;;;16.10;98.20;;;;;;4941096;28;89610;-81
2023/09/22 06:43:01;;;;;;;105.00;53.72;;;16.20;97.60;;;;;;4956949;28;95542;-82
2023/09/22 06:45:27;;;;;;;106.25;54.13;;;16.20;98.70;;;;;;4942153;28;93236;-81
2023/09/22 06:47:52;;;;;;;105.10;54.45;;;16.10;97.30;;;;;;4955707;28;89620;-80
2023/09/22 06:50:19;;;;;;;107.38;53.85;;;16.10;97.40;;;;;;4974514;28;91729;-81
2023/09/22 06:52:45;;;;;;;108.10;53.55;;;16.20;98.50;;;;;;4970358;28;94724;-81
2023/09/22 06:55:13;;;;;;;103.38;53.83;;;16.30;98.00;;;;;;4968823;28;90789;-83
2023/09/22 06:57:42;;;;;;;103.20;53.90;;;16.20;97.60;;;;;;4961133;28;89352;-80
2023/09/22 07:00:18;;;;;;;106.68;53.83;;;16.20;97.30;;;;;;4958926;28;89323;-81
2023/09/22 07:02:47;;;;;;;104.13;53.55;;;16.30;97.30;;;;;;4957313;28;93642;-82
2023/09/22 07:05:18;;;;;;;103.40;53.72;;;16.30;97.40;;;;;;4976015;28;91088;-81
2023/09/22 07:07:44;;;;;;;107.15;54.05;;;16.20;97.00;;;;;;4956609;28;90295;-81
2023/09/22 07:10:10;;;;;;;104.95;54.05;;;16.30;98.40;;;;;;4974372;28;89011;-82
2023/09/22 07:12:41;;;;;;;106.05;53.92;;;16.30;97.70;;;;;;4954067;28;95062;-82
2023/09/22 07:15:07;;;;;;;107.20;54.33;;;16.30;98.20;;;;;;4960543;28;93243;-82
2023/09/22 07:17:34;;;;;;;104.68;53.88;;;16.40;97.00;;;;;;4953906;28;91601;-81
2023/09/22 07:20:01;;;;;;;106.63;53.67;;;16.40;98.20;;;;;;4974326;28;91315;-80
2023/09/22 07:22:29;;;;;;;105.43;53.70;;;16.40;97.30;;;;;;4957519;28;93952;-81
2023/09/22 07:24:55;;;;;;;103.63;53.97;;;16.50;97.60;;;;;;4972124;28;90170;-81
2023/09/22 07:27:23;;;;;;;103.25;53.78;;;16.50;97.20;;;;;;4969068;28;89437;-81
2023/09/22 07:29:50;;;;;;;103.32;53.72;;;16.60;97.60;;;;;;4962284;28;89569;-81
2023/09/22 07:32:16;;;;;;;104.10;54.40;;;16.60;96.90;;;;;;4954027;28;93065;-80
2023/09/22 07:34:42;;;;;;;105.88;54.17;;;16.60;96.20;;;;;;4970207;28;93312;-81
2023/09/22 07:37:11;;;;;;;107.35;54.55;;;16.60;96.00;;;;;;4963075;28;89276;-80
2023/09/22 07:39:40;;;;;;;103.68;53.58;;;16.70;96.70;;;;;;4978587;28;90186;-81
2023/09/22 07:42:06;;;;;;;106.28;53.83;;;16.70;97.10;;;;;;4981497;28;91032;-82
2023/09/22 07:44:32;;;;;;;103.63;53.85;;;16.80;96.50;;;;;;4985764;28;92715;-81
2023/09/22 07:47:00;;;;;;;104.95;53.88;;;16.80;96.90;;;;;;4974880;28;90271;-81
2023/09/22 07:49:26;;;;;;;104.22;53.88;;;17.00;96.40;;;;;;4973203;28;89696;-80
2023/09/22 07:51:53;;;;;;;103.70;53.97;;;17.00;96.40;;;;;;4956739;28;93155;-80
2023/09/22 07:54:21;;;;;;;102.72;53.67;;;17.20;96.20;;;;;;4977671;28;90487;-81
2023/09/22 07:56:47;;;;;;;104.05;53.78;;;17.20;95.90;;;;;;4955412;28;89931;-80
2023/09/22 07:59:16;;;;;;;104.38;53.55;;;17.20;96.20;;;;;;4959143;28;89567;-81
2023/09/22 08:01:43;;;;;;;105.90;54.03;;;17.20;95.60;;;;;;4971368;28;89751;-80
2023/09/22 08:04:12;;;;;;;104.95;53.67;;;17.20;95.90;;;;;;4972641;28;89992;-80
2023/09/22 08:06:38;;;;;;;104.95;54.00;;;17.20;95.90;;;;;;4967538;28;90712;-81
2023/09/22 08:09:04;;;;;;;104.53;53.78;;;17.30;95.80;;;;;;4960323;28;90706;-80
2023/09/22 08:11:30;;;;;;;106.57;54.47;;;17.30;95.70;;;;;;4955586;28;94159;-80
2023/09/22 08:13:58;;;;;;;103.95;53.88;;;17.40;95.70;;;;;;4972640;28;91423;-80
2023/09/22 08:16:26;;;;;;;103.40;53.42;;;17.40;95.40;;;;;;4976857;28;90459;-82
2023/09/22 08:18:54;;;;;;;105.25;53.88;;;17.40;95.10;;;;;;4973889;28;89970;-82
2023/09/22 08:21:21;;;;;;;106.85;53.67;;;17.40;94.80;;;;;;4964121;28;92764;-83
2023/09/22 08:23:47;;;;;;;105.75;53.80;;;17.50;95.50;;;;;;4965145;28;91107;-81
2023/09/22 08:26:17;;;;;;;105.45;53.85;;;17.50;95.20;;;;;;4975875;28;89697;-81
2023/09/22 08:28:47;;;;;;;107.07;54.17;;;17.60;95.20;;;;;;4953735;28;90498;-81
2023/09/22 08:31:13;;;;;;;105.53;54.05;;;17.60;95.20;;;;;;4959034;28;92895;-81
2023/09/22 08:33:39;;;;;;;104.47;53.72;;;17.60;95.00;;;;;;4974938;28;90227;-81
2023/09/22 08:36:05;;;;;;;105.10;53.95;;;17.70;94.90;;;;;;4972122;28;90490;-83
2023/09/22 08:38:32;;;;;;;104.93;53.67;;;17.70;94.70;;;;;;4978676;28;90148;-83
2023/09/22 08:40:59;;;;;;;106.43;54.03;;;17.70;94.90;;;;;;4954897;28;93146;-83
2023/09/22 08:43:27;;;;;;;105.07;54.08;;;17.90;94.70;;;;;;4956734;28;93118;-84
2023/09/22 08:45:53;;;;;;;106.85;54.25;;;18.00;94.10;;;;;;4971883;28;89979;-83
2023/09/22 08:48:19;;;;;;;106.43;54.58;;;18.10;94.30;;;;;;4963031;28;91127;-83
2023/09/22 08:50:45;;;;;;;107.18;54.45;;;18.20;93.90;;;;;;4977947;28;92348;-82
2023/09/22 08:53:11;;;;;;;107.20;54.40;;;18.20;94.80;;;;;;4953937;28;92165;-82
2023/09/22 08:55:38;;;;;;;108.07;54.83;;;18.20;94.20;;;;;;4955718;28;91412;-87
2023/09/22 08:58:04;;;;;;;107.50;54.55;;;18.30;94.40;;;;;;4965341;28;89692;-84
2023/09/22 09:00:30;;;;;;;106.68;54.35;;;18.40;93.80;;;;;;4965369;28;93057;-84
2023/09/22 09:03:08;;;;;;;109.15;54.47;;;18.40;93.80;;;;;;4957906;28;92311;-84
2023/09/22 09:05:36;;;;;;;106.57;54.70;;;18.40;93.90;;;;;;4975171;28;90451;-82
2023/09/22 09:08:21;;;;;;;107.90;54.67;;;18.50;93.80;;;;;;4957375;28;89924;-85
2023/09/22 09:10:48;;;;;;;105.13;54.05;;;18.50;93.20;;;;;;4951474;28;93258;-83
2023/09/22 09:13:18;;;;;;;112.25;54.65;;;18.50;92.80;;;;;;4973675;28;90993;-86
2023/09/22 09:15:45;;;;;;;107.97;54.47;;;18.50;93.00;;;;;;4963837;28;89399;-86
2023/09/22 09:18:19;;;;;;;105.75;54.72;;;18.60;93.20;;;;;;4959547;28;89239;-83
2023/09/22 09:20:47;;;;;;;110.05;54.60;;;18.70;93.10;;;;;;4951326;28;92909;-86
2023/09/22 09:23:18;;;;;;;105.82;54.47;;;18.60;92.60;;;;;;4963221;28;93335;-85
2023/09/22 09:25:58;;;;;;;109.43;54.70;;;18.60;92.70;;;;;;4975573;28;89434;-86
2023/09/22 09:28:25;;;;;;;107.38;54.50;;;18.50;92.90;;;;;;4971890;28;89101;-87
2023/09/22 09:30:59;;;;;;;108.78;54.05;;;18.60;93.30;;;;;;4953545;28;90154;-87
2023/09/22 09:33:27;;;;;;;105.60;54.63;;;18.80;93.20;;;;;;4951377;28;91540;-87
2023/09/22 09:35:54;;;;;;;108.25;54.72;;;18.70;92.50;;;;;;4959410;28;89290;-86
2023/09/22 09:38:22;;;;;;;104.93;54.33;;;18.80;92.40;;;;;;4969510;28;88739;-85
2023/09/22 09:40:50;;;;;;;105.40;54.42;;;18.80;91.60;;;;;;4969356;28;89857;-86
2023/09/22 09:43:16;;;;;;;110.30;54.65;;;18.70;92.00;;;;;;4959095;28;91888;-85
2023/09/22 09:45:59;;;;;;;106.40;54.42;;;18.70;92.20;;;;;;4964711;28;90606;-84
2023/09/22 09:48:25;;;;;;;107.15;54.55;;;18.70;92.00;;;;;;4979221;28;89039;-89
2023/09/22 09:50:57;;;;;;;105.38;54.33;;;18.70;91.90;;;;;;4964141;28;92793;-86
2023/09/22 09:53:41;;;;;;;112.28;54.47;;;18.70;91.60;;;;;;4962202;28;91487;-86
2023/09/22 09:56:07;;;;;;;108.40;54.47;;;18.70;91.70;;;;;;4987486;28;89611;-89
2023/09/22 09:58:37;;;;;;;110.80;54.45;;;18.70;91.80;;;;;;4983706;28;89338;-87
2023/09/22 10:01:07;;;;;;;107.35;54.65;;;18.80;91.50;;;;;;4978305;28;91449;-84
2023/09/22 10:03:39;;;;;;;106.65;54.33;;;18.90;91.40;;;;;;4972701;28;91484;-87
2023/09/22 10:06:12;;;;;;;108.35;54.53;;;18.80;91.00;;;;;;4960533;28;89534;-85
2023/09/22 10:08:37;;;;;;;107.72;54.65;;;18.70;91.70;;;;;;4963747;28;90172;-86
2023/09/22 10:11:08;;;;;;;108.57;55.10;;;18.80;91.90;;;;;;4956938;28;92225;-85
2023/09/22 10:13:38;;;;;;;108.70;54.78;;;18.90;92.40;;;;;;4945071;28;93530;-83
2023/09/22 10:16:05;;;;;;;106.72;54.72;;;18.90;91.80;;;;;;4957684;28;90838;-83
2023/09/22 10:18:56;;;;;;;112.75;55.28;;;18.70;91.50;;;;;;4956716;28;90250;-84
2023/09/22 10:21:46;;;;;;;108.35;54.80;;;18.70;91.50;;;;;;4970819;28;92611;-83
2023/09/22 10:24:23;;;;;;;109.70;54.45;;;18.70;92.10;;;;;;4960521;28;92713;-86
2023/09/22 10:27:13;;;;;;;109.00;54.80;;;18.70;92.50;;;;;;4972767;28;89290;-85
2023/09/22 10:29:51;;;;;;;106.45;54.30;;;18.90;92.10;;;;;;4943787;28;88862;-87
2023/09/22 10:32:21;;;;;;;107.53;54.50;;;18.90;91.80;;;;;;4971233;28;92988;-86
2023/09/22 10:34:56;;;;;;;107.88;54.70;;;18.90;91.60;;;;;;4966861;28;91578;-87
2023/09/22 10:37:27;;;;;;;106.05;54.53;;;19.00;91.80;;;;;;4968654;28;91459;-84
2023/09/22 10:40:09;;;;;;;;;;;18.90;91.10;;;;;;4968504;28;89721;-84
2023/09/22 10:42:48;;;;;;;107.10;54.80;;;18.90;91.90;;;;;;4966563;28;93028;-83
2023/09/22 10:45:17;;;;;;;106.53;54.58;;;19.00;92.20;;;;;;4962681;28;92065;-87
2023/09/22 10:47:45;;;;;;;107.00;54.53;;;19.00;91.70;;;;;;4961156;28;89381;-89
2023/09/22 10:50:31;;;;;;;108.57;54.90;;;19.00;91.70;;;;;;4953930;28;90991;-88
2023/09/22 10:52:58;;;;;;;108.22;54.45;;;19.00;91.80;;;;;;4940047;28;92148;-87
2023/09/22 10:55:34;;;;;;;106.75;54.55;;;19.00;91.40;;;;;;4931748;28;91345;-85
2023/09/22 10:58:04;;;;;;;109.03;54.88;;;19.00;91.00;;;;;;4938701;28;90960;-83
2023/09/22 11:00:32;;;;;;;108.75;55.25;;;18.90;91.50;;;;;;4949904;28;90779;-85
2023/09/22 11:03:11;;;;;;;106.00;54.38;;;18.90;91.50;;;;;;4933282;28;95174;-86
2023/09/22 11:05:42;;;;;;;108.70;55.10;;;18.90;91.40;;;;;;4949834;28;89917;-84
2023/09/22 11:08:17;;;;;;;107.03;55.17;;;18.90;91.20;;;;;;4935744;28;89427;-84
2023/09/22 11:10:55;;;;;;;105.70;54.58;;;18.90;91.50;;;;;;4953967;28;89911;-83
2023/09/22 11:13:21;;;;;;;106.95;54.80;;;19.00;91.10;;;;;;4951420;28;92475;-83
2023/09/22 11:15:56;;;;;;;108.13;54.70;;;18.90;91.30;;;;;;4949796;28;89969;-83
2023/09/22 11:18:27;;;;;;;106.53;54.58;;;18.90;91.20;;;;;;4948708;28;95397;-83
2023/09/22 11:20:56;;;;;;;107.57;54.88;;;18.90;90.80;;;;;;4956898;28;88672;-83
2023/09/22 11:23:24;;;;;;;107.05;54.53;;;18.90;91.30;;;;;;4949940;28;91640;-82
2023/09/22 11:25:57;;;;;;;108.65;54.88;;;19.00;91.60;;;;;;4931869;28;92632;-84
2023/09/22 11:28:23;;;;;;;106.97;54.90;;;19.00;90.90;;;;;;4943144;28;91010;-85
2023/09/22 11:30:50;;;;;;;107.65;55.13;;;19.00;90.90;;;;;;4939090;28;89741;-85
2023/09/22 11:33:16;;;;;;;108.55;54.72;;;19.10;90.70;;;;;;4939105;28;92101;-85
2023/09/22 11:35:41;;;;;;;108.03;55.25;;;19.10;91.00;;;;;;4938383;28;91947;-84
2023/09/22 11:38:27;;;;;;;106.78;54.60;;;19.10;91.10;;;;;;4936820;28;90491;-85
2023/09/22 11:41:16;;;;;;;107.80;54.58;;;19.10;90.60;;;;;;4954656;28;90431;-86
2023/09/22 11:43:47;;;;;;;108.00;54.95;;;19.00;90.90;;;;;;4950133;28;89782;-87
2023/09/22 11:46:14;;;;;;;108.25;54.85;;;19.10;91.50;;;;;;4954270;28;89848;-86
2023/09/22 11:48:54;;;;;;;111.28;54.95;;;19.00;91.30;;;;;;4957549;28;89207;-89
2023/09/22 11:51:20;;;;;;;109.03;54.90;;;19.10;92.10;;;;;;4971653;28;89321;-87
2023/09/22 11:53:46;;;;;;;107.95;54.72;;;19.10;92.60;;;;;;4952780;28;93277;-87
2023/09/22 11:56:12;;;;;;;107.28;54.83;;;19.10;92.10;;;;;;4960360;28;93443;-89
2023/09/22 11:58:40;;;;;;;107.40;54.85;;;19.00;92.10;;;;;;4972485;28;88913;-88
2023/09/22 12:01:09;;;;;;;106.97;54.38;;;19.00;92.30;;;;;;4957265;28;89758;-88
2023/09/22 12:03:35;;;;;;;106.72;54.58;;;18.90;92.60;;;;;;4955819;28;92400;-89
2023/09/22 12:06:02;;;;;;;111.63;55.00;;;18.80;92.70;;;;;;4974920;28;90218;-92
2023/09/22 12:08:29;;;;;;;106.35;54.17;;;18.80;93.70;;;;;;4980671;28;88844;-92
2023/09/22 12:10:55;;;;;;;105.57;54.72;;;18.80;94.00;;;;;;4982116;28;88188;-93
2023/09/22 12:13:22;;;;;;;105.57;54.58;;;18.90;94.00;;;;;;4963403;28;89913;-92
2023/09/22 12:15:47;;;;;;;106.07;54.83;;;18.80;93.30;;;;;;4959913;28;90125;-90
2023/09/22 12:18:13;;;;;;;106.50;54.78;;;18.80;93.60;;;;;;4970132;28;90152;-91
2023/09/22 12:20:38;;;;;;;108.38;54.85;;;18.80;93.50;;;;;;4977741;28;89224;-90
2023/09/22 12:23:04;;;;;;;107.55;54.50;;;18.70;93.60;;;;;;4950868;23;93094;-43